createdAt,value
2022-09-15T00:02:18.444Z,90.71
2022-09-15T00:04:54.293Z,90.75
2022-09-15T00:07:31.505Z,90.76
2022-09-15T00:10:10.390Z,90.87
2022-09-15T00:12:46.235Z,90.94
2022-09-15T00:15:22.969Z,90.90
2022-09-15T00:17:58.965Z,90.72
2022-09-15T00:20:34.773Z,90.75
2022-09-15T00:23:11.246Z,90.81
2022-09-15T00:25:53.483Z,90.82
2022-09-15T00:28:29.703Z,90.86
2022-09-15T00:31:10.912Z,90.82
2022-09-15T00:33:49.607Z,90.88
2022-09-15T00:36:27.412Z,91.05
2022-09-15T00:39:03.604Z,91.04
2022-09-15T00:41:41.661Z,91.04
2022-09-15T00:45:05.292Z,91.11
2022-09-15T00:47:43.128Z,91.04
2022-09-15T00:50:23.612Z,91.08
2022-09-15T00:53:04.922Z,91.09
2022-09-15T00:55:47.541Z,91.08
2022-09-15T00:58:30.429Z,91.08
2022-09-15T01:01:09.603Z,91.09
2022-09-15T01:03:46.578Z,91.05
2022-09-15T01:06:32.876Z,91.00
2022-09-15T01:09:16.706Z,90.96
2022-09-15T01:11:52.872Z,90.99
2022-09-15T01:14:28.896Z,91.02
2022-09-15T01:17:22.670Z,91.02
2022-09-15T01:21:09.769Z,91.04
2022-09-15T01:24:36.897Z,90.95
2022-09-15T01:27:42.665Z,90.85
2022-09-15T01:30:23.098Z,90.99
2022-09-15T01:33:32.099Z,91.12
2022-09-15T01:36:19.414Z,91.11
2022-09-15T01:39:05.300Z,91.15
2022-09-15T01:41:49.406Z,91.16
2022-09-15T01:44:33.219Z,91.20
2022-09-15T01:47:14.772Z,91.20
2022-09-15T01:49:57.731Z,91.19
2022-09-15T01:52:35.299Z,91.17
2022-09-15T01:55:22.507Z,91.18
2022-09-15T01:58:00.388Z,91.14
2022-09-15T02:00:42.946Z,91.11
2022-09-15T02:03:29.987Z,91.13
2022-09-15T02:06:15.908Z,91.12
2022-09-15T02:09:02.974Z,91.06
2022-09-15T02:11:48.065Z,90.90
2022-09-15T02:14:39.183Z,90.72
2022-09-15T02:17:20.686Z,90.38
2022-09-15T02:20:11.509Z,90.29
2022-09-15T02:22:54.715Z,90.28
2022-09-15T02:25:37.783Z,90.55
2022-09-15T02:28:18.420Z,90.73
2022-09-15T02:30:58.805Z,90.82
2022-09-15T02:33:41.251Z,90.96
2022-09-15T02:36:20.876Z,91.02
2022-09-15T02:39:06.092Z,91.08
2022-09-15T02:41:43.096Z,91.14
2022-09-15T02:44:19.216Z,91.19
2022-09-15T02:46:55.653Z,91.21
2022-09-15T02:49:31.762Z,91.16
2022-09-15T02:52:08.458Z,91.17
2022-09-15T02:54:44.260Z,91.14
2022-09-15T02:57:21.153Z,91.13
2022-09-15T03:00:16.125Z,91.12
2022-09-15T03:02:55.319Z,91.08
2022-09-15T03:05:32.825Z,91.05
2022-09-15T03:08:09.065Z,91.04
2022-09-15T03:10:45.362Z,91.05
2022-09-15T03:13:21.380Z,91.00
2022-09-15T03:15:57.155Z,90.96
2022-09-15T03:18:33.213Z,90.95
2022-09-15T03:21:13.204Z,90.94
2022-09-15T03:23:50.283Z,90.95
2022-09-15T03:26:26.181Z,90.93
2022-09-15T03:29:02.452Z,90.93
2022-09-15T03:31:38.293Z,90.91
2022-09-15T03:34:14.206Z,90.93
2022-09-15T03:36:49.939Z,90.92
2022-09-15T03:39:25.944Z,90.92
2022-09-15T03:42:01.724Z,90.93
2022-09-15T03:44:37.782Z,90.95
2022-09-15T03:47:13.768Z,90.96
2022-09-15T03:49:49.644Z,90.98
2022-09-15T03:52:26.288Z,91.01
2022-09-15T03:55:02.124Z,91.05
2022-09-15T03:57:38.076Z,91.05
2022-09-15T04:00:17.664Z,91.06
2022-09-15T04:02:53.595Z,91.04
2022-09-15T04:05:29.543Z,91.02
2022-09-15T04:08:05.871Z,91.01
2022-09-15T04:10:44.113Z,91.01
2022-09-15T04:13:20.060Z,90.97
2022-09-15T04:16:04.284Z,90.97
2022-09-15T04:18:40.767Z,90.98
2022-09-15T04:21:20.386Z,91.03
2022-09-15T04:23:56.660Z,91.05
2022-09-15T04:26:36.694Z,91.11
2022-09-15T04:29:18.899Z,91.20
2022-09-15T04:31:54.966Z,91.25
2022-09-15T04:34:30.865Z,91.33
2022-09-15T04:37:07.589Z,91.40
2022-09-15T04:39:43.573Z,91.50
2022-09-15T04:42:21.034Z,91.48
2022-09-15T04:44:56.803Z,91.49
2022-09-15T04:47:32.797Z,91.43
2022-09-15T04:50:10.125Z,91.42
2022-09-15T04:52:46.017Z,91.37
2022-09-15T04:55:21.980Z,91.27
2022-09-15T04:57:58.825Z,91.19
2022-09-15T05:00:43.269Z,91.17
2022-09-15T05:03:19.656Z,91.17
2022-09-15T05:05:55.628Z,91.12
2022-09-15T05:08:31.426Z,90.97
2022-09-15T05:11:10.306Z,90.89
2022-09-15T05:13:46.721Z,90.72
2022-09-15T05:16:26.668Z,90.59
2022-09-15T05:19:05.780Z,90.51
2022-09-15T05:21:41.852Z,90.46
2022-09-15T05:24:18.324Z,90.44
2022-09-15T05:26:54.070Z,90.44
2022-09-15T05:29:30.214Z,90.29
2022-09-15T05:32:06.821Z,90.15
2022-09-15T05:34:42.819Z,90.06
2022-09-15T05:37:19.879Z,89.88
2022-09-15T05:39:59.603Z,89.77
2022-09-15T05:42:36.930Z,89.67
2022-09-15T05:45:14.349Z,89.52
2022-09-15T05:47:50.715Z,89.36
2022-09-15T05:50:26.722Z,89.08
2022-09-15T05:53:02.706Z,88.84
2022-09-15T05:55:42.519Z,88.66
2022-09-15T05:58:18.511Z,88.54
2022-09-15T06:00:55.153Z,88.38
2022-09-15T06:03:31.359Z,88.27
2022-09-15T06:06:09.609Z,88.15
2022-09-15T06:08:51.853Z,88.06
2022-09-15T06:11:33.792Z,88.09
2022-09-15T06:14:09.816Z,88.01
2022-09-15T06:16:45.958Z,87.92
2022-09-15T06:19:22.118Z,87.87
2022-09-15T06:21:58.062Z,87.84
2022-09-15T06:24:33.970Z,87.81
2022-09-15T06:27:10.282Z,87.54
2022-09-15T06:29:46.100Z,87.45
2022-09-15T06:32:22.110Z,87.33
2022-09-15T06:34:58.067Z,87.22
2022-09-15T06:37:34.130Z,87.20
2022-09-15T06:40:13.326Z,87.30
2022-09-15T06:42:49.416Z,87.17
2022-09-15T06:45:25.229Z,87.05
2022-09-15T06:48:22.868Z,87.03
2022-09-15T06:51:00.695Z,86.95
2022-09-15T06:53:39.159Z,86.85
2022-09-15T06:56:18.216Z,86.74
2022-09-15T06:58:54.625Z,86.74
2022-09-15T07:01:39.998Z,86.75
2022-09-15T07:04:16.148Z,86.73
2022-09-15T07:06:52.347Z,86.55
2022-09-15T07:09:28.381Z,86.53
2022-09-15T07:12:04.768Z,86.44
2022-09-15T07:14:41.086Z,86.41
2022-09-15T07:17:17.241Z,86.61
2022-09-15T07:19:53.292Z,86.56
2022-09-15T07:22:30.364Z,86.39
2022-09-15T07:25:07.449Z,85.80
2022-09-15T07:27:43.864Z,85.46
2022-09-15T07:30:20.557Z,85.26
2022-09-15T07:32:56.434Z,84.80
2022-09-15T07:35:32.692Z,84.69
2022-09-15T07:38:08.478Z,84.63
2022-09-15T07:40:46.209Z,84.77
2022-09-15T07:43:22.165Z,84.89
2022-09-15T07:46:02.194Z,84.78
2022-09-15T07:48:38.368Z,84.80
2022-09-15T07:51:15.322Z,84.86
2022-09-15T07:53:52.802Z,84.94
2022-09-15T07:56:28.845Z,85.16
2022-09-15T07:59:04.657Z,85.38
2022-09-15T08:01:41.590Z,85.99
2022-09-15T08:04:18.021Z,86.15
2022-09-15T08:06:53.841Z,86.08
2022-09-15T08:09:30.132Z,86.24
2022-09-15T08:12:08.120Z,86.26
2022-09-15T08:14:44.081Z,86.25
2022-09-15T08:17:20.142Z,86.35
2022-09-15T08:19:55.925Z,86.46
2022-09-15T08:22:31.849Z,86.52
2022-09-15T08:25:09.362Z,86.61
2022-09-15T08:27:45.910Z,86.62
2022-09-15T08:30:22.702Z,86.36
2022-09-15T08:32:58.744Z,86.31
2022-09-15T08:35:37.054Z,86.37
2022-09-15T08:38:13.553Z,86.58
2022-09-15T08:40:50.506Z,86.41
2022-09-15T08:43:38.228Z,86.34
2022-09-15T08:46:22.529Z,85.94
2022-09-15T08:49:09.719Z,85.42
2022-09-15T08:51:52.016Z,85.29
2022-09-15T08:54:31.543Z,85.00
2022-09-15T08:57:12.297Z,84.82
2022-09-15T08:59:48.252Z,84.78
2022-09-15T09:03:21.168Z,84.59
2022-09-15T09:06:09.444Z,84.18
2022-09-15T09:09:15.276Z,83.62
2022-09-15T09:12:32.425Z,82.73
2022-09-15T09:15:29.562Z,81.89
2022-09-15T09:18:50.311Z,81.23
2022-09-15T09:21:32.507Z,80.90
2022-09-15T09:24:16.456Z,79.96
2022-09-15T09:26:56.503Z,80.33
2022-09-15T09:29:40.593Z,79.37
2022-09-15T09:32:24.797Z,78.90
2022-09-15T09:35:14.646Z,78.68
2022-09-15T09:37:52.391Z,78.25
2022-09-15T09:40:30.971Z,78.18
2022-09-15T09:43:07.634Z,78.27
2022-09-15T09:45:44.140Z,78.11
2022-09-15T09:48:26.332Z,78.05
2022-09-15T09:51:02.882Z,78.10
2022-09-15T09:53:39.134Z,77.43
2022-09-15T09:56:27.957Z,77.20
2022-09-15T09:59:05.145Z,76.88
2022-09-15T10:01:41.521Z,76.02
2022-09-15T10:04:23.885Z,75.80
2022-09-15T10:07:00.638Z,75.59
2022-09-15T10:09:37.905Z,74.70
2022-09-15T10:12:27.705Z,74.25
2022-09-15T10:15:09.744Z,73.75
2022-09-15T10:17:50.343Z,73.65
2022-09-15T10:20:40.064Z,73.78
2022-09-15T10:23:32.164Z,73.96
2022-09-15T10:26:34.836Z,74.04
2022-09-15T10:29:27.239Z,74.12
2022-09-15T10:32:26.082Z,74.02
2022-09-15T10:35:23.941Z,73.85
2022-09-15T10:38:15.886Z,73.93
2022-09-15T10:41:03.257Z,74.05
2022-09-15T10:43:58.204Z,73.38
2022-09-15T10:46:47.245Z,73.30
2022-09-15T10:49:49.501Z,73.56
2022-09-15T10:52:45.185Z,73.10
2022-09-15T10:55:52.940Z,73.21
2022-09-15T10:59:01.031Z,73.22
2022-09-15T11:02:21.561Z,73.16
2022-09-15T11:05:23.692Z,73.11
2022-09-15T11:08:27.190Z,72.64
2022-09-15T11:11:14.966Z,72.46
2022-09-15T11:14:23.321Z,72.81
2022-09-15T11:17:24.545Z,72.35
2022-09-15T11:20:41.297Z,72.73
2022-09-15T11:23:27.098Z,72.00
2022-09-15T11:26:11.182Z,71.66
2022-09-15T11:28:53.823Z,71.13
2022-09-15T11:31:36.233Z,70.71
2022-09-15T11:34:24.201Z,70.52
2022-09-15T11:37:09.258Z,70.23
2022-09-15T11:39:54.669Z,69.78
2022-09-15T11:42:41.291Z,69.83
2022-09-15T11:45:27.913Z,69.94
2022-09-15T11:48:16.055Z,69.75
2022-09-15T11:50:58.220Z,70.16
2022-09-15T11:53:48.630Z,70.26
2022-09-15T11:56:34.885Z,70.24
2022-09-15T11:59:27.176Z,69.88
2022-09-15T12:02:20.597Z,69.88
2022-09-15T12:05:15.024Z,69.22
2022-09-15T12:07:59.493Z,69.14
2022-09-15T12:10:42.349Z,68.56
2022-09-15T12:13:22.722Z,68.34
2022-09-15T12:16:02.188Z,68.23
2022-09-15T12:18:46.908Z,67.64
2022-09-15T12:21:35.336Z,67.36
2022-09-15T12:24:25.038Z,67.12
2022-09-15T12:27:03.763Z,66.71
2022-09-15T12:29:50.861Z,66.98
2022-09-15T12:32:30.713Z,66.70
2022-09-15T12:35:34.505Z,66.54
2022-09-15T12:38:17.172Z,66.97
2022-09-15T12:41:02.569Z,66.64
2022-09-15T12:43:38.530Z,66.64
2022-09-15T12:46:22.102Z,66.65
2022-09-15T12:49:03.758Z,66.85
2022-09-15T12:51:39.782Z,67.12
2022-09-15T12:54:28.324Z,67.36
2022-09-15T12:57:06.168Z,67.73
2022-09-15T12:59:42.041Z,68.05
2022-09-15T13:02:51.366Z,68.04
2022-09-15T13:06:24.013Z,68.30
2022-09-15T13:09:29.691Z,68.30
2022-09-15T13:12:08.971Z,68.64
2022-09-15T13:14:50.184Z,68.64
2022-09-15T13:17:29.545Z,69.32
2022-09-15T13:20:23.146Z,69.52
2022-09-15T13:23:00.747Z,69.77
2022-09-15T13:25:38.717Z,69.68
2022-09-15T13:28:19.004Z,70.04
2022-09-15T13:31:16.909Z,70.43
2022-09-15T13:38:30.902Z,70.69
2022-09-15T13:41:52.441Z,71.08
2022-09-15T13:45:26.410Z,71.35
2022-09-15T13:48:42.563Z,71.28
2022-09-15T13:51:28.774Z,71.47
2022-09-15T13:54:15.923Z,71.75
2022-09-15T13:56:53.319Z,72.01
2022-09-15T13:59:34.857Z,72.43
2022-09-15T14:02:13.170Z,72.82
2022-09-15T14:04:54.029Z,73.24
2022-09-15T14:07:32.674Z,73.51
2022-09-15T14:10:19.237Z,73.75
2022-09-15T14:12:59.972Z,74.06
2022-09-15T14:15:36.438Z,73.67
2022-09-15T14:18:24.266Z,73.33
2022-09-15T14:21:19.608Z,73.19
2022-09-15T14:23:58.893Z,73.13
2022-09-15T14:26:38.158Z,73.26
2022-09-15T14:29:24.542Z,73.18
2022-09-15T14:32:07.445Z,73.12
2022-09-15T14:34:44.715Z,73.25
2022-09-15T14:37:27.629Z,73.45
2022-09-15T14:40:21.108Z,73.80
2022-09-15T14:42:58.038Z,73.90
2022-09-15T14:45:57.546Z,74.35
2022-09-15T14:48:34.312Z,74.76
2022-09-15T14:51:22.763Z,74.74
2022-09-15T14:54:03.193Z,74.88
2022-09-15T14:56:44.147Z,75.08
2022-09-15T14:59:28.734Z,75.19
2022-09-15T15:02:27.235Z,75.46
2022-09-15T15:05:10.984Z,75.58
2022-09-15T15:07:47.520Z,75.64
2022-09-15T15:10:35.639Z,75.84
2022-09-15T15:13:18.262Z,76.00
2022-09-15T15:15:54.549Z,76.31
2022-09-15T15:18:43.732Z,76.46
2022-09-15T15:21:44.521Z,76.53
2022-09-15T15:24:27.051Z,76.68
2022-09-15T15:27:43.807Z,76.91
2022-09-15T15:30:50.926Z,77.08
2022-09-15T15:33:31.123Z,77.11
2022-09-15T15:36:11.918Z,77.27
2022-09-15T15:38:56.911Z,77.38
2022-09-15T15:41:37.913Z,77.76
2022-09-15T15:44:32.144Z,77.90
2022-09-15T15:47:30.403Z,78.21
2022-09-15T15:50:16.429Z,78.36
2022-09-15T15:52:53.798Z,78.51
2022-09-15T15:55:40.655Z,78.84
2022-09-15T15:58:18.862Z,79.08
2022-09-15T16:00:57.612Z,79.22
2022-09-15T16:03:33.793Z,79.36
2022-09-15T16:06:12.646Z,79.68
2022-09-15T16:08:49.402Z,79.94
2022-09-15T16:11:25.258Z,80.07
2022-09-15T16:14:01.413Z,80.44
2022-09-15T16:16:41.005Z,80.82
2022-09-15T16:19:17.349Z,81.12
2022-09-15T16:21:55.638Z,81.41
2022-09-15T16:24:32.617Z,81.69
2022-09-15T16:27:14.952Z,82.00
2022-09-15T16:29:51.256Z,82.29
2022-09-15T16:32:28.783Z,82.66
2022-09-15T16:35:11.273Z,82.95
2022-09-15T16:37:47.110Z,83.15
2022-09-15T16:40:24.218Z,83.41
2022-09-15T16:43:02.486Z,83.73
2022-09-15T16:45:43.130Z,83.97
2022-09-15T16:48:20.069Z,84.12
2022-09-15T16:51:20.523Z,84.34
2022-09-15T16:53:52.417Z,84.56
2022-09-15T16:56:29.129Z,84.84
2022-09-15T16:59:05.482Z,84.98
2022-09-15T17:01:41.741Z,85.20
2022-09-15T17:04:20.197Z,85.38
2022-09-15T17:06:56.283Z,85.51
2022-09-15T17:09:32.180Z,85.61
2022-09-15T17:14:49.898Z,85.90
2022-09-15T17:17:31.615Z,85.99
2022-09-15T17:20:07.172Z,86.02
2022-09-15T17:22:43.059Z,85.67
2022-09-15T17:25:35.015Z,86.09
2022-09-15T17:28:11.032Z,86.24
2022-09-15T17:30:46.916Z,86.19
2022-09-15T17:33:24.648Z,86.27
2022-09-15T17:36:02.755Z,86.27
2022-09-15T17:38:41.195Z,86.17
2022-09-15T17:41:22.423Z,86.09
2022-09-15T17:43:59.592Z,85.95
2022-09-15T17:46:35.668Z,86.14
2022-09-15T17:49:12.029Z,86.43
2022-09-15T17:51:48.038Z,86.15
2022-09-15T17:54:24.229Z,86.01
2022-09-15T17:57:00.130Z,86.16
2022-09-15T17:59:36.060Z,86.27
2022-09-15T18:02:21.874Z,86.44
2022-09-15T18:04:58.437Z,86.57
2022-09-15T18:07:35.027Z,86.58
2022-09-15T18:10:12.914Z,86.55
2022-09-15T18:12:52.236Z,86.54
2022-09-15T18:15:35.335Z,86.56
2022-09-15T18:18:18.791Z,86.57
2022-09-15T18:20:58.002Z,86.65
2022-09-15T18:23:33.852Z,86.71
2022-09-15T18:26:09.959Z,86.72
2022-09-15T18:28:45.853Z,86.60
2022-09-15T18:31:22.132Z,86.58
2022-09-15T18:33:58.393Z,86.46
2022-09-15T18:36:34.580Z,86.33
2022-09-15T18:39:12.012Z,86.07
2022-09-15T18:44:30.497Z,85.99
2022-09-15T18:47:06.517Z,85.91
2022-09-15T18:49:42.517Z,85.74
2022-09-15T18:52:18.677Z,85.57
2022-09-15T18:54:54.847Z,85.49
2022-09-15T18:57:36.970Z,85.36
2022-09-15T19:00:19.882Z,85.32
2022-09-15T19:03:01.115Z,85.29
2022-09-15T19:05:38.651Z,85.39
2022-09-15T19:08:15.728Z,85.52
2022-09-15T19:11:02.069Z,85.54
2022-09-15T19:13:37.987Z,85.69
2022-09-15T19:16:14.504Z,85.75
2022-09-15T19:18:53.841Z,85.83
2022-09-15T19:21:30.057Z,85.79
2022-09-15T19:24:06.468Z,85.82
2022-09-15T19:26:42.584Z,85.89
2022-09-15T19:29:19.005Z,85.92
2022-09-15T19:31:54.906Z,85.88
2022-09-15T19:34:30.731Z,85.90
2022-09-15T19:37:11.376Z,86.01
2022-09-15T19:39:50.453Z,86.16
2022-09-15T19:42:26.600Z,86.37
2022-09-15T19:45:02.865Z,86.60
2022-09-15T19:47:39.363Z,86.62
2022-09-15T19:50:18.132Z,86.72
2022-09-15T19:52:58.832Z,86.78
2022-09-15T19:55:35.790Z,86.77
2022-09-15T19:58:11.769Z,86.66
2022-09-15T20:00:52.505Z,86.92
2022-09-15T20:08:10.971Z,86.61
2022-09-15T20:10:49.064Z,86.63
2022-09-15T20:13:26.490Z,86.77
2022-09-15T20:16:07.554Z,86.86
2022-09-15T20:18:47.412Z,86.77
2022-09-15T20:21:48.650Z,86.79
2022-09-15T20:24:27.310Z,86.99
2022-09-15T20:27:05.581Z,87.06
2022-09-15T20:29:44.368Z,86.85
2022-09-15T20:32:27.481Z,86.93
2022-09-15T20:35:05.812Z,87.17
2022-09-15T20:37:43.251Z,87.27
2022-09-15T20:40:21.330Z,87.13
2022-09-15T20:42:58.757Z,87.17
2022-09-15T20:45:39.966Z,87.35
2022-09-15T20:48:20.082Z,87.47
2022-09-15T20:51:07.204Z,87.55
2022-09-15T20:53:47.829Z,87.44
2022-09-15T20:56:26.892Z,87.26
2022-09-15T20:59:06.396Z,87.44
2022-09-15T21:01:45.333Z,87.21
2022-09-15T21:04:23.024Z,87.16
2022-09-15T21:06:59.682Z,87.31
2022-09-15T21:09:36.649Z,87.40
2022-09-15T21:12:13.918Z,87.43
2022-09-15T21:14:50.577Z,87.44
2022-09-15T21:17:29.183Z,87.57
2022-09-15T21:20:06.522Z,87.71
2022-09-15T21:22:43.328Z,87.68
2022-09-15T21:25:20.001Z,87.78
2022-09-15T21:27:56.352Z,87.99
2022-09-15T21:30:32.902Z,87.90
2022-09-15T21:33:09.462Z,87.83
2022-09-15T21:35:47.535Z,87.96
2022-09-15T21:38:24.205Z,88.00
2022-09-15T21:41:00.740Z,87.92
2022-09-15T21:43:40.288Z,87.89
2022-09-15T21:46:20.112Z,87.99
2022-09-15T21:48:59.092Z,87.92
2022-09-15T21:51:36.394Z,87.98
2022-09-15T21:54:13.837Z,88.00
2022-09-15T21:56:50.620Z,88.10
2022-09-15T21:59:27.503Z,88.03
2022-09-15T22:02:04.030Z,88.07
2022-09-15T22:04:41.093Z,88.23
2022-09-15T22:07:19.551Z,88.29
2022-09-15T22:09:56.347Z,88.28
2022-09-15T22:12:33.042Z,88.34
2022-09-15T22:15:12.411Z,88.32
2022-09-15T22:17:49.050Z,88.23
2022-09-15T22:20:25.967Z,88.43
2022-09-15T22:23:04.773Z,88.49
2022-09-15T22:25:41.239Z,88.36
2022-09-15T22:28:17.615Z,88.36
2022-09-15T22:30:57.378Z,88.51
2022-09-15T22:33:34.943Z,88.28
2022-09-15T22:36:13.998Z,88.08
2022-09-15T22:38:50.772Z,87.99
2022-09-15T22:41:27.488Z,87.81
2022-09-15T22:44:04.770Z,87.92
2022-09-15T22:46:41.377Z,87.78
2022-09-15T22:49:18.002Z,87.79
2022-09-15T22:51:54.632Z,87.90
2022-09-15T22:54:31.810Z,87.86
2022-09-15T22:57:08.620Z,87.95
2022-09-15T22:59:45.003Z,88.07
2022-09-15T23:02:20.881Z,88.05
2022-09-15T23:04:56.647Z,88.03
2022-09-15T23:07:32.773Z,87.87
2022-09-15T23:10:10.003Z,88.00
2022-09-15T23:12:45.705Z,87.98
2022-09-15T23:15:21.496Z,88.12
2022-09-15T23:17:56.901Z,88.10
2022-09-15T23:20:33.781Z,88.08
2022-09-15T23:23:10.723Z,88.13
2022-09-15T23:25:47.896Z,88.15
2022-09-15T23:28:24.634Z,88.02
2022-09-15T23:31:03.049Z,87.99
2022-09-15T23:33:39.382Z,87.95
2022-09-15T23:36:19.682Z,87.97
2022-09-15T23:38:56.009Z,87.98
2022-09-15T23:41:32.077Z,88.03
2022-09-15T23:44:09.060Z,88.03
2022-09-15T23:46:45.222Z,87.93
2022-09-15T23:49:21.604Z,88.04
2022-09-15T23:51:57.845Z,88.14
2022-09-15T23:54:34.112Z,88.30
2022-09-15T23:57:11.912Z,88.28
2022-09-15T23:59:48.023Z,88.36
